Time;durP1;ratioP1;P1;durP2;ratioP2;P2;SDS_P1;SDS_P2;PMS_P1;PMS_P2;Temp;Humidity;BMP_temperature;BMP_pressure;BME280_temperature;BME280_humidity;BME280_pressure;Samples;Min_cycle;Max_cycle;Signal;HPM_P1;HPM_P2
2022/12/15 00:39:39;;;;;;;;;;;;;;;-3.57;100.00;100478.66;5064165;28;19924;-73
2022/12/15 00:42:05;;;;;;;;;;;;;;;-3.56;100.00;100485.56;5049136;28;19925;-72
2022/12/15 00:44:30;;;;;;;;;;;;;;;-3.54;100.00;100494.22;5064988;28;20402;-73
2022/12/15 00:46:55;;;;;;;;;;;;;;;-3.50;100.00;100495.09;5062402;28;19977;-73
2022/12/15 01:22:20;;;;;;;;;;;;;;;-3.37;100.00;100506.41;5043365;28;19989;-72
2022/12/15 01:24:46;;;;;;;;;;;;;;;-3.36;100.00;100509.00;5063062;28;20023;-72
2022/12/15 01:27:11;;;;;;;;;;;;;;;-3.34;100.00;100514.19;5044510;28;19942;-72
2022/12/15 01:29:36;;;;;;;;;;;;;;;-3.33;100.00;100514.19;5062490;28;20042;-72
2022/12/15 01:32:02;;;;;;;;;;;;;;;-3.33;100.00;100518.53;5043853;28;19928;-72
2022/12/15 01:34:27;;;;;;;;;;;;;;;-3.33;100.00;100524.56;5062982;28;20001;-73
2022/12/15 01:36:53;;;;;;;;;;;;;;;-3.35;100.00;100527.97;5064608;28;20493;-73
2022/12/15 01:39:18;;;;;;;;;;;;;;;-3.36;100.00;100528.84;5063853;28;19932;-72
2022/12/15 01:41:44;;;;;;;;;;;;;;;-3.37;100.00;100528.00;5064374;28;19940;-72
2022/12/15 01:44:16;;;;;;;;;;;;;;;-3.36;100.00;100524.53;5043711;28;21484;-73
2022/12/15 01:46:42;;;;;;;;;;;;;;;-3.34;100.00;100527.13;5042917;28;19939;-73
2022/12/15 01:49:13;;;;;;;;;;;;;;;-3.34;100.00;100533.19;5064184;28;19924;-72
2022/12/15 01:51:39;;;;;;;;;;;;;;;-3.35;100.00;100528.88;5064973;28;20045;-74
2022/12/15 01:54:10;;;;;;;;;;;;;;;-3.37;100.00;100530.59;5054458;28;20375;-74
2022/12/15 01:56:37;;;;;;;;;;;;;;;-3.37;100.00;100533.19;5063951;28;19928;-73
2022/12/15 01:59:02;;;;;;;;;;;;;;;-3.31;100.00;100543.53;5063980;28;19931;-71
2022/12/15 02:01:28;;;;;;;;;;;;;;;-3.29;100.00;100553.91;5045650;28;19993;-72
2022/12/15 02:03:54;;;;;;;;;;;;;;;-3.26;100.00;100566.91;5064633;28;19930;-73
2022/12/15 02:06:21;;;;;;;;;;;;;;;-3.19;100.00;100558.31;5043880;28;20035;-73
2022/12/15 02:08:47;;;;;;;;;;;;;;;-3.13;100.00;100565.25;5044965;28;19928;-73
2022/12/15 02:11:44;;;;;;;;;;;;;;;-3.09;100.00;100553.19;5045372;28;19931;-73
2022/12/15 02:14:10;;;;;;;;;;;;;;;-3.03;100.00;100555.81;5022637;28;19928;-73
2022/12/15 02:16:36;;;;;;;;;;;;;;;-3.00;100.00;100551.53;5053646;28;20343;-73
2022/12/15 02:19:07;;;;;;;;;;;;;;;-2.96;100.00;100554.16;5064997;28;19931;-73
2022/12/15 02:21:35;;;;;;;;;;;;;;;-2.96;100.00;100544.63;5051769;28;19932;-72
2022/12/15 02:24:01;;;;;;;;;;;;;;;-2.97;100.00;100553.28;5043439;28;20671;-72
2022/12/15 02:26:45;;;;;;;;;;;;;;;-2.99;100.00;100544.63;5062186;28;19924;-72
2022/12/15 02:29:30;;;;;;;;;;;;;;;-3.03;100.00;100543.75;5063168;28;19920;-73
2022/12/15 02:32:09;;;;;;;;;;;;;;;-3.07;100.00;100544.56;5060729;28;20207;-73
2022/12/15 02:34:44;;;;;;;;;;;;;;;-3.10;100.00;100541.09;5045688;28;20288;-73
2022/12/15 02:37:10;;;;;;;;;;;;;;;-3.12;100.00;100548.00;5036567;28;20405;-73
2022/12/15 02:39:35;;;;;;;;;;;;;;;-3.16;100.00;100563.50;5065494;28;19924;-73
2022/12/15 02:42:00;;;;;;;;;;;;;;;-3.17;100.00;100563.50;5063763;28;20496;-73
2022/12/15 02:44:34;;;;;;;;;;;;;;;-3.18;100.00;100580.78;5063623;28;19924;-73
2022/12/15 02:47:18;;;;;;;;;;;;;;;-3.21;100.00;100580.72;5044595;28;21516;-72
2022/12/15 02:49:56;;;;;;;;;;;;;;;-3.20;100.00;100571.25;5061865;28;19929;-72
2022/12/15 02:52:29;;;;;;;;;;;;;;;-3.19;100.00;100579.03;5061654;28;20023;-72
2022/12/15 02:55:07;;;;;;;;;;;;;;;-3.14;100.00;100566.97;5047832;28;19928;-72
2022/12/15 02:57:38;;;;;;;;;;;;;;;-3.09;100.00;100568.72;5062946;28;20062;-72
2022/12/15 03:00:05;;;;;;;;;;;;;;;-3.06;100.00;100561.84;5046446;28;19935;-72
2022/12/15 03:02:31;;;;;;;;;;;;;;;-3.03;100.00;100558.41;5042891;28;19932;-72
2022/12/15 03:04:56;;;;;;;;;;;;;;;-3.01;100.00;100549.78;5046341;28;19977;-72
2022/12/15 03:07:22;;;;;;;;;;;;;;;-2.98;100.00;100551.53;5043740;28;19928;-73
2022/12/15 03:09:47;;;;;;;;;;;;;;;-2.96;100.00;100544.63;5064927;28;19925;-72
2022/12/15 03:12:13;;;;;;;;;;;;;;;-2.95;100.00;100546.38;5065531;28;20284;-72
2022/12/15 03:14:38;;;;;;;;;;;;;;;-2.94;100.00;100550.69;5066920;28;20437;-72
2022/12/15 03:17:06;;;;;;;;;;;;;;;-2.93;100.00;100548.97;5065551;28;19928;-73
2022/12/15 03:19:32;;;;;;;;;;;;;;;-2.94;100.00;100555.88;5066924;28;20318;-73
2022/12/15 03:21:57;;;;;;;;;;;;;;;-2.93;100.00;100557.63;5063353;28;19936;-73
2022/12/15 03:24:22;;;;;;;;;;;;;;;-2.93;100.00;100559.34;5065459;28;20439;-73
2022/12/15 03:26:48;;;;;;;;;;;;;;;-2.93;100.00;100572.28;5047023;28;19928;-73
2022/12/15 03:29:15;;;;;;;;;;;;;;;-2.93;100.00;100569.69;5039846;28;20306;-72
2022/12/15 03:31:40;;;;;;;;;;;;;;;-2.92;100.00;100567.13;5064112;28;20386;-72
2022/12/15 03:34:06;;;;;;;;;;;;;;;-2.91;100.00;100565.38;5066358;28;21490;-72
2022/12/15 03:36:31;;;;;;;;;;;;;;;-2.91;100.00;100563.69;5066401;28;19932;-72
2022/12/15 03:38:56;;;;;;;;;;;;;;;-2.92;100.00;100564.53;5065813;28;19939;-73
2022/12/15 03:41:22;;;;;;;;;;;;;;;-2.94;100.00;100560.19;5066011;28;20641;-72
2022/12/15 03:43:47;;;;;;;;;;;;;;;-2.96;100.00;100562.78;5067939;28;19998;-72
2022/12/15 03:46:13;;;;;;;;;;;;;;;-2.97;100.00;100566.22;5033433;28;19926;-73
2022/12/15 03:48:38;;;;;;;;;;;;;;;-3.00;100.00;100561.00;5067256;28;19957;-73
2022/12/15 03:51:03;;;;;;;;;;;;;;;-3.00;100.00;100568.78;5065298;28;21526;-73
2022/12/15 03:53:29;;;;;;;;;;;;;;;-3.00;100.00;100564.47;5065699;28;19932;-72
2022/12/15 03:55:54;;;;;;;;;;;;;;;-3.01;100.00;100569.66;5066546;28;20418;-73
2022/12/15 03:58:19;;;;;;;;;;;;;;;-3.02;100.00;100565.31;5064872;28;21433;-73
2022/12/15 04:00:45;;;;;;;;;;;;;;;-3.03;100.00;100558.41;5045147;28;20083;-72
2022/12/15 04:03:10;;;;;;;;;;;;;;;-3.02;100.00;100555.84;5045334;28;19960;-72
2022/12/15 04:05:36;;;;;;;;;;;;;;;-2.98;100.00;100553.25;5064613;28;19975;-72
2022/12/15 04:08:01;;;;;;;;;;;;;;;-2.96;100.00;100548.97;5045320;28;19928;-72
2022/12/15 04:10:27;;;;;;;;;;;;;;;-2.94;100.00;100548.09;5046294;28;19931;-72
2022/12/15 04:12:57;;;;;;;;;;;;;;;-2.92;100.00;100548.09;5045229;28;20082;-72
2022/12/15 04:15:23;;;;;;;;;;;;;;;-2.93;100.00;100549.84;5066232;28;19981;-72
2022/12/15 04:17:48;;;;;;;;;;;;;;;-2.94;100.00;100548.09;5048797;28;19924;-73
2022/12/15 04:20:13;;;;;;;;;;;;;;;-2.96;100.00;100548.97;5066535;28;19966;-72
2022/12/15 04:22:42;;;;;;;;;;;;;;;-2.99;100.00;100547.22;5063593;28;19928;-72
2022/12/15 05:33:34;;;;;;;;;;;;;;;-2.08;100.00;100567.47;5062365;28;19924;-74
2022/12/15 05:35:59;;;;;;;;;;;;;;;-2.02;100.00;100563.16;5048493;28;20367;-74
2022/12/15 05:38:24;;;;;;;;;;;;;;;-1.98;100.00;100570.06;5062564;28;19924;-74
2022/12/15 05:40:50;;;;;;;;;;;;;;;-1.95;100.00;100567.50;5064058;28;19935;-74
2022/12/15 05:43:16;;;;;;;;;;;;;;;-1.93;100.00;100565.75;5064004;28;20433;-74
2022/12/15 05:45:41;;;;;;;;;;;;;;;-1.88;100.00;100573.53;5060597;28;19939;-74
2022/12/15 05:48:07;;;;;;;;;;;;;;;-1.85;100.00;100576.16;5063308;28;19932;-73
2022/12/15 05:50:32;;;;;;;;;;;;;;;-1.86;100.00;100575.28;5045881;28;20422;-73
2022/12/15 05:52:58;;;;;;;;;;;;;;;-1.87;100.00;100577.91;5064992;28;20009;-74
2022/12/15 05:55:23;;;;;;;;;;;;;;;-1.88;100.00;100578.72;5045309;28;19925;-73
2022/12/15 05:57:49;;;;;;;;;;;;;;;-1.91;100.00;100582.19;5044438;28;19939;-73
2022/12/15 06:00:15;;;;;;;;;;;;;;;-1.92;100.00;100588.25;5062708;28;21502;-73
2022/12/15 06:02:40;;;;;;;;;;;;;;;-1.93;100.00;100592.56;5063739;28;19952;-74
2022/12/15 06:05:06;;;;;;;;;;;;;;;-1.94;100.00;100590.84;5049215;28;20438;-73
2022/12/15 06:07:32;;;;;;;;;;;;;;;-1.94;100.00;100584.78;5063139;28;19968;-73
2022/12/15 06:09:58;;;;;;;;;;;;;;;-1.97;100.00;100589.97;5043645;28;19954;-74
2022/12/15 06:12:23;;;;;;;;;;;;;;;-2.00;100.00;100585.66;5064671;28;20395;-73
2022/12/15 06:14:48;;;;;;;;;;;;;;;-2.01;100.00;100583.03;5065686;28;19936;-74
2022/12/15 06:17:14;;;;;;;;;;;;;;;-2.01;100.00;100581.31;5063829;28;19929;-74
2022/12/15 06:19:39;;;;;;;;;;;;;;;-2.01;100.00;100580.44;5063809;28;20474;-73
2022/12/15 06:22:05;;;;;;;;;;;;;;;-2.01;100.00;100588.22;5064417;28;20447;-73
2022/12/15 06:24:30;;;;;;;;;;;;;;;-2.01;100.00;100590.81;5064811;28;19928;-73
2022/12/15 06:26:55;;;;;;;;;;;;;;;-1.99;100.00;100583.91;5044974;28;20041;-73
2022/12/15 06:29:21;;;;;;;;;;;;;;;-1.98;100.00;100578.72;5043654;28;19940;-74
2022/12/15 06:31:46;;;;;;;;;;;;;;;-1.96;100.00;100582.19;5065004;28;19924;-74
2022/12/15 06:34:12;;;;;;;;;;;;;;;-1.93;100.00;100582.19;5045234;28;19974;-74
2022/12/15 06:36:38;;;;;;;;;;;;;;;-1.88;100.00;100579.59;5065026;28;19950;-73
2022/12/15 06:39:03;;;;;;;;;;;;;;;-1.86;100.00;100579.63;5062676;28;19983;-73
2022/12/15 06:41:29;;;;;;;;;;;;;;;-1.85;100.00;100579.59;5063598;28;20446;-74
2022/12/15 06:43:55;;;;;;;;;;;;;;;-1.83;100.00;100583.09;5048635;28;19924;-74
2022/12/15 06:46:20;;;;;;;;;;;;;;;-1.81;100.00;100586.53;5045322;28;19935;-74
2022/12/15 06:48:46;;;;;;;;;;;;;;;-1.79;100.00;100600.38;5068467;28;20019;-74
2022/12/15 06:51:12;;;;;;;;;;;;;;;-1.77;100.00;100605.59;5048070;28;19997;-74
2022/12/15 06:53:39;;;;;;;;;;;;;;;-1.73;100.00;100603.84;5033491;28;19928;-73
2022/12/15 06:56:06;;;;;;;;;;;;;;;-1.71;100.00;100602.13;5067721;28;19939;-73
2022/12/15 06:58:32;;;;;;;;;;;;;;;-1.70;100.00;100602.13;5065602;28;19935;-73
2022/12/15 07:00:57;;;;;;;;;;;;;;;-1.65;100.00;100597.81;5057683;28;19929;-73
2022/12/15 07:03:22;;;;;;;;;;;;;;;-1.58;100.00;100609.06;5054902;28;19935;-74
2022/12/15 07:05:48;;;;;;;;;;;;;;;-1.56;100.00;100604.75;5047095;28;19997;-73
2022/12/15 07:08:14;;;;;;;;;;;;;;;-1.53;100.00;100612.53;5054176;28;19928;-73
2022/12/15 07:10:41;;;;;;;;;;;;;;;-1.46;100.00;100612.53;5055600;28;20304;-73
2022/12/15 07:13:09;;;;;;;;;;;;;;;-1.43;100.00;100602.13;5067263;28;19954;-73
2022/12/15 07:15:35;;;;;;;;;;;;;;;-1.40;100.00;100608.22;5066413;28;20202;-73
2022/12/15 07:18:01;;;;;;;;;;;;;;;-1.39;100.00;100606.47;5066486;28;20026;-74
2022/12/15 07:20:26;;;;;;;;;;;;;;;-1.37;100.00;100610.81;5066740;28;19932;-74
2022/12/15 07:22:51;;;;;;;;;;;;;;;-1.35;100.00;100616.03;5047380;28;20071;-74
2022/12/15 07:25:17;;;;;;;;;;;;;;;-1.36;100.00;100614.28;5067034;28;19955;-74
2022/12/15 07:27:43;;;;;;;;;;;;;;;-1.38;100.00;100610.81;5066913;28;20424;-74
2022/12/15 07:30:09;;;;;;;;;;;;;;;-1.41;100.00;100616.00;5066955;28;20470;-74
2022/12/15 07:32:34;;;;;;;;;;;;;;;-1.42;100.00;100624.69;5066761;28;20308;-74
2022/12/15 07:35:00;;;;;;;;;;;;;;;-1.45;100.00;100620.34;5067305;28;19928;-73
2022/12/15 07:37:28;;;;;;;;;;;;;;;-1.46;100.00;100622.94;5067647;28;19935;-74
2022/12/15 07:39:53;;;;;;;;;;;;;;;-1.48;100.00;100637.66;5065949;28;20421;-74
2022/12/15 07:42:19;;;;;;;;;;;;;;;-1.48;100.00;100650.63;5067364;28;19928;-74
2022/12/15 07:44:45;;;;;;;;;;;;;;;-1.49;100.00;100639.38;5067723;28;19932;-74
2022/12/15 07:47:10;;;;;;;;;;;;;;;-1.48;100.00;100645.44;5066441;28;19935;-74
2022/12/15 07:49:36;;;;;;;;;;;;;;;-1.48;100.00;100645.44;5064853;28;19927;-74
2022/12/15 07:52:01;;;;;;;;;;;;;;;-1.49;100.00;100633.31;5062532;28;19963;-74
2022/12/15 07:54:28;;;;;;;;;;;;;;;-1.49;100.00;100641.13;5066362;28;19960;-74
2022/12/15 07:56:53;;;;;;;;;;;;;;;-1.49;100.00;100649.75;5065808;28;19981;-74
2022/12/15 07:59:18;;;;;;;;;;;;;;;-1.49;100.00;100660.16;5065691;28;19927;-74
2022/12/15 08:01:44;;;;;;;;;;;;;;;-1.49;100.00;100665.34;5066636;28;19924;-74
2022/12/15 08:04:09;;;;;;;;;;;;;;;-1.47;100.00;100667.94;5063521;28;20489;-73
2022/12/15 08:06:35;;;;;;;;;;;;;;;-1.47;100.00;100673.13;5063468;28;19978;-74
2022/12/15 08:09:00;;;;;;;;;;;;;;;-1.46;100.00;100670.56;5066237;28;19924;-74
2022/12/15 08:11:25;;;;;;;;;;;;;;;-1.44;100.00;100675.72;5063102;28;19935;-74
2022/12/15 08:13:51;;;;;;;;;;;;;;;-1.44;100.00;100674.00;5064786;28;19964;-74
2022/12/15 08:16:17;;;;;;;;;;;;;;;-1.42;100.00;100671.44;5052809;28;19935;-75
2022/12/15 08:18:42;;;;;;;;;;;;;;;-1.39;100.00;100676.63;5061831;28;19924;-74
2022/12/15 08:21:08;;;;;;;;;;;;;;;-1.38;100.00;100679.22;5061459;28;20032;-74
2022/12/15 08:23:34;;;;;;;;;;;;;;;-1.34;100.00;100679.22;5059402;28;20715;-75
2022/12/15 08:26:07;;;;;;;;;;;;;;;-1.30;100.00;100673.16;5023460;28;19935;-74
2022/12/15 08:28:36;;;;;;;;;;;;;;;-1.26;100.00;100670.56;5062483;28;19967;-74
2022/12/15 08:31:12;;;;;;;;;;;;;;;-1.21;100.00;100660.16;5042062;28;19935;-74
2022/12/15 08:33:37;;;;;;;;;;;;;;;-1.13;100.00;100667.97;5061019;28;19928;-75
2022/12/15 08:36:04;;;;;;;;;;;;;;;-1.04;100.00;100665.38;5061872;28;19982;-74
2022/12/15 08:38:29;;;;;;;;;;;;;;;-0.96;100.00;100674.03;5061381;28;19928;-74
2022/12/15 08:40:55;;;;;;;;;;;;;;;-0.92;100.00;100669.72;5043402;28;20386;-74
2022/12/15 08:43:21;;;;;;;;;;;;;;;-0.88;100.00;100671.44;5060553;28;19997;-75
2022/12/15 08:45:46;;;;;;;;;;;;;;;-0.84;100.00;100667.97;5039703;28;20047;-74
2022/12/15 08:48:12;;;;;;;;;;;;;;;-0.83;100.00;100676.63;5057880;28;20034;-74
2022/12/15 08:50:37;;;;;;;;;;;;;;;-0.83;100.00;100676.63;5060716;28;19942;-74
2022/12/15 08:53:03;;;;;;;;;;;;;;;-0.85;100.00;100675.75;5042202;28;19928;-75
2022/12/15 08:55:28;;;;;;;;;;;;;;;-0.86;100.00;100666.22;5060382;28;19954;-75
2022/12/15 08:57:54;;;;;;;;;;;;;;;-0.86;100.00;100671.44;5047247;28;20436;-75
2022/12/15 09:00:19;;;;;;;;;;;;;;;-0.88;100.00;100668.81;5062106;28;20732;-75
2022/12/15 09:02:44;;;;;;;;;;;;;;;-0.88;100.00;100668.81;5060096;28;19932;-75
2022/12/15 09:05:10;;;;;;;;;;;;;;;-0.87;100.00;100670.56;5060277;28;19932;-74
2022/12/15 09:07:35;;;;;;;;;;;;;;;-0.85;100.00;100673.16;5061194;28;20936;-74
2022/12/15 09:10:01;;;;;;;;;;;;;;;-0.87;100.00;100678.34;5059378;28;19932;-74
2022/12/15 09:12:27;;;;;;;;;;;;;;;-0.85;100.00;100678.38;5054471;28;19940;-75
2022/12/15 09:14:52;;;;;;;;;;;;;;;-0.86;100.00;100676.63;5060953;28;20023;-74
2022/12/15 09:17:17;;;;;;;;;;;;;;;-0.83;100.00;100689.63;5058476;28;21650;-75
2022/12/15 09:19:43;;;;;;;;;;;;;;;-0.83;100.00;100687.91;5059881;28;21458;-74
2022/12/15 09:22:08;;;;;;;;;;;;;;;-0.82;100.00;100692.22;5059574;28;19932;-75
2022/12/15 09:24:34;;;;;;;;;;;;;;;-0.78;100.00;100690.47;5060266;28;19938;-74
2022/12/15 09:26:59;;;;;;;;;;;;;;;-0.77;100.00;100689.63;5040983;28;19987;-75
2022/12/15 09:29:25;;;;;;;;;;;;;;;-0.76;100.00;100696.53;5062377;28;20613;-75
2022/12/15 09:31:50;;;;;;;;;;;;;;;-0.74;100.00;100704.34;5043667;28;19954;-74
2022/12/15 09:34:15;;;;;;;;;;;;;;;-0.76;100.00;100699.13;5062273;28;19932;-74
2022/12/15 09:36:41;;;;;;;;;;;;;;;-0.75;100.00;100700.03;5041954;28;19938;-74
2022/12/15 09:39:07;;;;;;;;;;;;;;;-0.74;100.00;100705.22;5042363;28;20294;-74
2022/12/15 09:41:33;;;;;;;;;;;;;;;-0.74;100.00;100712.16;5039974;28;19985;-75
2022/12/15 09:44:06;;;;;;;;;;;;;;;-0.76;100.00;100712.16;5062920;28;19933;-74
2022/12/15 09:46:34;;;;;;;;;;;;;;;-0.77;100.00;100713.00;5041555;28;20396;-74
2022/12/15 09:49:01;;;;;;;;;;;;;;;-0.77;100.00;100713.00;5045340;28;19931;-75
2022/12/15 09:51:33;;;;;;;;;;;;;;;-0.75;100.00;100708.69;5041924;28;20031;-75
2022/12/15 09:53:59;;;;;;;;;;;;;;;-0.75;100.00;100703.50;5039566;28;19936;-75
2022/12/15 09:56:51;;;;;;;;;;;;;;;-0.75;100.00;100713.03;5052065;28;19924;-74
2022/12/15 09:59:38;;;;;;;;;;;;;;;-0.73;100.00;100713.88;5050662;28;19928;-74
2022/12/15 10:02:22;;;;;;;;;;;;;;;-0.71;100.00;100713.00;5037218;28;20288;-75
2022/12/15 10:04:54;;;;;;;;;;;;;;;-0.71;100.00;100706.97;5056970;28;19931;-75
2022/12/15 10:07:31;;;;;;;;;;;;;;;-0.71;100.00;100696.56;5058839;28;19936;-75
2022/12/15 10:09:56;;;;;;;;;;;;;;;-0.71;100.00;100692.22;5040024;28;19929;-75
2022/12/15 10:12:28;;;;;;;;;;;;;;;-0.67;100.00;100698.28;5059018;28;20315;-75
2022/12/15 10:14:54;;;;;;;;;;;;;;;-0.64;100.00;100692.22;5026314;28;20387;-75
2022/12/15 10:17:22;;;;;;;;;;;;;;;-0.60;100.00;100688.75;5039324;28;20430;-75
2022/12/15 10:19:54;;;;;;;;;;;;;;;-0.56;100.00;100686.13;5057713;28;20025;-75
2022/12/15 10:22:26;;;;;;;;;;;;;;;-0.50;100.00;100690.44;5059177;28;20493;-75
2022/12/15 10:24:53;;;;;;;;;;;;;;;-0.44;100.00;100693.03;5054061;28;20037;-75
2022/12/15 10:27:26;;;;;;;;;;;;;;;-0.39;100.00;100697.38;5038997;28;19972;-75
2022/12/15 10:30:04;;;;;;;;;;;;;;;-0.33;100.00;100693.00;5039750;28;19965;-75
2022/12/15 10:32:49;;;;;;;;;;;;;;;-0.32;100.00;100699.94;5037365;28;19928;-75
2022/12/15 10:35:16;;;;;;;;;;;;;;;-0.29;100.00;100696.47;5057042;28;19924;-76
2022/12/15 10:37:42;;;;;;;;;;;;;;;-0.27;100.00;100697.34;5058270;28;19928;-76
2022/12/15 10:40:08;;;;;;;;;;;;;;;-0.24;100.00;100696.44;5056483;28;19932;-75
2022/12/15 10:42:38;;;;;;;;;;;;;;;-0.22;100.00;100695.56;5059315;28;19934;-75
2022/12/15 10:45:49;;;;;;;;;;;;;;;-0.18;100.00;100689.50;5028764;28;20378;-75
2022/12/15 10:48:33;;;;;;;;;;;;;;;-0.13;100.00;100688.63;5057561;28;20662;-75
2022/12/15 10:51:19;;;;;;;;;;;;;;;-0.09;100.00;100690.34;5058825;28;19935;-75
2022/12/15 10:53:48;;;;;;;;;;;;;;;-0.08;100.00;100686.84;5058661;28;20354;-75
2022/12/15 10:56:23;;;;;;;;;;;;;;;-0.02;100.00;100692.03;5056640;28;19928;-75
2022/12/15 10:58:50;;;;;;;;;;;;;;;0.04;100.00;100684.19;5057862;28;19928;-74
2022/12/15 11:01:26;;;;;;;;;;;;;;;0.09;100.00;100685.06;5058515;28;19924;-76
2022/12/15 11:03:52;;;;;;;;;;;;;;;0.15;100.00;100678.94;5058054;28;20092;-75
2022/12/15 11:06:28;;;;;;;;;;;;;;;0.18;100.00;100683.28;5056828;28;19935;-75
2022/12/15 11:08:55;;;;;;;;;;;;;;;0.21;100.00;100693.69;5040886;28;20359;-75
2022/12/15 11:14:11;;;;;;;;;;;;;;;0.25;100.00;100684.97;5048002;28;19929;-75
2022/12/15 11:16:41;;;;;;;;;;;;;;;0.29;100.00;100681.50;5059265;28;19940;-75
2022/12/15 11:19:10;;;;;;;;;;;;;;;0.32;100.00;100686.66;5058324;28;20454;-75
2022/12/15 11:21:37;;;;;;;;;;;;;;;0.38;100.00;100686.63;5032028;28;20184;-75
2022/12/15 11:24:03;;;;;;;;;;;;;;;0.42;100.00;100686.63;5059020;28;20341;-75
2022/12/15 11:26:37;;;;;;;;;;;;;;;0.44;100.00;100685.72;5059375;28;19959;-75
2022/12/15 11:29:15;;;;;;;;;;;;;;;0.49;100.00;100680.50;5040354;28;19925;-75
2022/12/15 11:31:41;;;;;;;;;;;;;;;0.52;100.00;100683.09;5059438;28;21585;-75
2022/12/15 11:34:11;;;;;;;;;;;;;;;0.53;100.00;100684.81;5061099;28;19935;-76
2022/12/15 11:36:40;;;;;;;;;;;;;;;0.59;100.00;100689.13;5046237;28;19925;-75
2022/12/15 11:39:21;;;;;;;;;;;;;;;0.63;100.00;100691.72;5044102;28;19970;-74
2022/12/15 11:41:46;;;;;;;;;;;;;;;0.66;100.00;100690.81;5043423;28;20757;-74
2022/12/15 11:44:29;;;;;;;;;;;;;;;0.67;100.00;100688.19;5063925;28;20043;-74
2022/12/15 11:47:13;;;;;;;;;;;;;;;0.71;100.00;100685.56;5050802;28;19981;-75
2022/12/15 11:49:39;;;;;;;;;;;;;;;0.76;100.00;100670.78;5064190;28;19924;-73
2022/12/15 11:52:05;;;;;;;;;;;;;;;0.80;100.00;100673.34;5063928;28;19931;-74
2022/12/15 11:54:36;;;;;;;;;;;;;;;0.84;100.00;100683.72;5062455;28;19997;-74
2022/12/15 11:57:07;;;;;;;;;;;;;;;0.84;100.00;100674.19;5042164;28;19931;-74
2022/12/15 11:59:41;;;;;;;;;;;;;;;0.83;100.00;100676.78;5060680;28;19924;-74
2022/12/15 12:02:26;;;;;;;;;;;;;;;0.85;100.00;100686.34;5052140;28;20379;-74
2022/12/15 12:05:10;;;;;;;;;;;;;;;0.87;100.00;100684.56;5049936;28;19928;-74
2022/12/15 12:07:38;;;;;;;;;;;;;;;0.89;100.00;100687.19;5056872;28;20335;-74
2022/12/15 12:10:22;;;;;;;;;;;;;;;0.89;100.00;100697.59;5061458;28;19931;-74
2022/12/15 12:13:00;;;;;;;;;;;;;;;0.87;100.00;100695.00;5063701;28;20437;-74
2022/12/15 12:15:30;;;;;;;;;;;;;;;0.85;100.00;100691.56;5045711;28;19928;-74
2022/12/15 12:18:06;;;;;;;;;;;;;;;0.84;100.00;100691.56;5041559;28;20390;-74
2022/12/15 12:20:38;;;;;;;;;;;;;;;0.83;100.00;100689.81;5040129;28;19928;-73
2022/12/15 12:23:04;;;;;;;;;;;;;;;0.84;100.00;100691.56;5044062;28;20644;-73
2022/12/15 12:25:30;;;;;;;;;;;;;;;0.85;100.00;100685.47;5061435;28;19932;-74
2022/12/15 12:27:55;;;;;;;;;;;;;;;0.85;100.00;100693.28;5042336;28;19924;-74
2022/12/15 12:30:22;;;;;;;;;;;;;;;0.86;100.00;100682.84;5058661;28;19985;-74
2022/12/15 12:32:47;;;;;;;;;;;;;;;0.89;100.00;100677.63;5062308;28;20090;-74
2022/12/15 12:35:31;;;;;;;;;;;;;;;0.93;100.00;100676.72;5061580;28;20315;-74
2022/12/15 12:37:56;;;;;;;;;;;;;;;1.00;100.00;100684.47;5056988;28;19935;-73
2022/12/15 12:40:30;;;;;;;;;;;;;;;1.06;100.00;100689.66;5045143;28;19928;-74
2022/12/15 12:42:56;;;;;;;;;;;;;;;1.15;100.00;100686.09;5047240;28;19931;-74
2022/12/15 12:45:28;;;;;;;;;;;;;;;1.24;100.00;100685.16;5061261;28;19989;-74
2022/12/15 12:47:53;;;;;;;;;;;;;;;1.30;100.00;100678.13;5039004;28;19977;-74
2022/12/15 12:50:19;;;;;;;;;;;;;;;1.37;100.00;100673.72;5057174;28;20614;-74
2022/12/15 12:53:11;;;;;;;;;;;;;;;1.39;100.00;100661.53;5062858;28;20395;-74
2022/12/15 12:55:38;;;;;;;;;;;;;;;1.40;100.00;100662.38;5024469;28;19993;-73
2022/12/15 12:58:04;;;;;;;;;;;;;;;1.40;100.00;100664.97;5043214;28;20038;-74
2022/12/15 13:00:30;;;;;;;;;;;;;;;1.39;100.00;100661.53;5059806;28;20018;-74
2022/12/15 13:03:12;;;;;;;;;;;;;;;1.40;100.00;100657.16;5043749;28;20046;-74
2022/12/15 13:05:39;;;;;;;;;;;;;;;1.40;100.00;100651.94;5041940;28;19990;-73
2022/12/15 13:08:04;;;;;;;;;;;;;;;1.39;100.00;100655.44;5042245;28;19927;-74
2022/12/15 13:10:30;;;;;;;;;;;;;;;1.37;100.00;100651.97;5045324;28;19928;-74
2022/12/15 13:12:59;;;;;;;;;;;;;;;1.33;100.00;100648.53;5058539;28;19936;-74
2022/12/15 13:15:30;;;;;;;;;;;;;;;1.27;100.00;100646.00;5059730;28;19935;-74
2022/12/15 13:17:59;;;;;;;;;;;;;;;1.21;100.00;100646.94;5041765;28;19968;-74
2022/12/15 13:20:26;;;;;;;;;;;;;;;1.17;100.00;100658.25;5059750;28;20065;-73
2022/12/15 13:22:52;;;;;;;;;;;;;;;1.13;100.00;100648.75;5039956;28;19924;-74
2022/12/15 13:25:32;;;;;;;;;;;;;;;1.07;100.00;100644.44;5040689;28;19931;-74
2022/12/15 13:27:57;;;;;;;;;;;;;;;1.03;100.00;100647.97;5061756;28;19925;-73
2022/12/15 13:30:23;;;;;;;;;;;;;;;1.01;100.00;100628.84;5043290;28;20219;-74
2022/12/15 13:33:09;;;;;;;;;;;;;;;1.02;100.00;100626.22;5030948;28;19924;-72
2022/12/15 13:35:34;;;;;;;;;;;;;;;1.04;100.00;100629.69;5042004;28;19937;-73
2022/12/15 13:38:06;;;;;;;;;;;;;;;1.06;100.00;100629.69;5058618;28;19932;-73
2022/12/15 13:40:34;;;;;;;;;;;;;;;1.08;100.00;100620.09;5042776;28;19964;-73
2022/12/15 13:43:03;;;;;;;;;;;;;;;1.12;100.00;100621.78;5061774;28;20053;-73
2022/12/15 13:45:35;;;;;;;;;;;;;;;1.18;100.00;100615.63;5059795;28;20018;-73
2022/12/15 13:48:01;;;;;;;;;;;;;;;1.21;100.00;100616.47;5040978;28;19935;-73
2022/12/15 13:50:35;;;;;;;;;;;;;;;1.26;100.00;100612.97;5042861;28;19929;-73
2022/12/15 13:53:02;;;;;;;;;;;;;;;1.27;100.00;100614.69;5039272;28;19928;-73
2022/12/15 13:55:36;;;;;;;;;;;;;;;1.30;100.00;100617.28;5053502;28;20489;-73
2022/12/15 13:58:14;;;;;;;;;;;;;;;1.32;100.00;100618.13;5037840;28;19924;-73
2022/12/15 14:00:47;;;;;;;;;;;;;;;1.33;100.00;100617.25;5032733;28;19935;-73
2022/12/15 14:03:12;;;;;;;;;;;;;;;1.33;100.00;100622.44;5038756;28;19936;-74
2022/12/15 14:05:40;;;;;;;;;;;;;;;1.33;100.00;100622.44;5041752;28;19929;-74
2022/12/15 14:08:09;;;;;;;;;;;;;;;1.32;100.00;100631.16;5037435;28;20452;-74
2022/12/15 14:10:35;;;;;;;;;;;;;;;1.30;100.00;100639.00;5038919;28;19924;-75
2022/12/15 14:13:10;;;;;;;;;;;;;;;1.31;100.00;100658.97;5039504;28;20415;-74
2022/12/15 14:15:35;;;;;;;;;;;;;;;1.32;100.00;100665.94;5037253;28;19924;-73
2022/12/15 14:18:01;;;;;;;;;;;;;;;1.31;100.00;100660.75;5037026;28;19938;-73
2022/12/15 14:20:28;;;;;;;;;;;;;;;1.27;100.00;100653.81;5039095;28;19955;-74
2022/12/15 14:22:53;;;;;;;;;;;;;;;1.25;100.00;100652.97;5037354;28;19928;-74
2022/12/15 14:25:20;;;;;;;;;;;;;;;1.21;100.00;100639.09;5038742;28;20380;-74
2022/12/15 14:27:45;;;;;;;;;;;;;;;1.17;100.00;100640.88;5039160;28;19928;-74
2022/12/15 14:30:12;;;;;;;;;;;;;;;1.13;100.00;100646.16;5034692;28;19955;-74
2022/12/15 14:32:37;;;;;;;;;;;;;;;1.09;100.00;100650.50;5037810;28;20020;-75
2022/12/15 14:35:02;;;;;;;;;;;;;;;1.08;100.00;100667.03;5036616;28;19973;-73
2022/12/15 14:37:28;;;;;;;;;;;;;;;1.06;100.00;100668.78;5031979;28;19928;-73
2022/12/15 14:39:53;;;;;;;;;;;;;;;1.06;100.00;100659.22;5044907;28;20008;-73
2022/12/15 14:42:20;;;;;;;;;;;;;;;1.06;100.00;100660.97;5040500;28;20391;-73
2022/12/15 14:44:46;;;;;;;;;;;;;;;1.04;100.00;100654.91;5042391;28;19952;-74
2022/12/15 14:47:20;;;;;;;;;;;;;;;1.04;100.00;100649.69;5035544;28;20494;-73
2022/12/15 14:49:47;;;;;;;;;;;;;;;1.01;100.00;100641.88;5037413;28;19955;-74
2022/12/15 14:52:22;;;;;;;;;;;;;;;0.98;100.00;100644.53;5028312;28;19925;-73
2022/12/15 14:54:55;;;;;;;;;;;;;;;0.96;100.00;100641.09;5057314;28;19935;-74
2022/12/15 14:57:20;;;;;;;;;;;;;;;0.94;100.00;100633.25;5059164;28;20436;-74
2022/12/15 14:59:50;;;;;;;;;;;;;;;0.94;100.00;100641.94;5059174;28;20176;-75